sensor_id;sensor_type;location;lat;lon;timestamp;P1;durP1;ratioP1;P2;durP2;ratioP2
75071;SDS011;63651;55.728;38.022;2023-07-29T09:07:38;2.10;;;1.90;;
75071;SDS011;63651;55.728;38.022;2023-07-29T09:12:40;1.85;;;1.70;;
75071;SDS011;63651;55.728;38.022;2023-07-29T09:17:41;3.33;;;2.10;;
75071;SDS011;63651;55.728;38.022;2023-07-29T09:22:43;1.95;;;1.58;;
75071;SDS011;63651;55.728;38.022;2023-07-29T09:27:44;2.35;;;1.85;;
75071;SDS011;63651;55.728;38.022;2023-07-29T09:32:45;2.30;;;1.85;;
75071;SDS011;63651;55.728;38.022;2023-07-29T09:37:46;2.10;;;1.90;;
75071;SDS011;63651;55.728;38.022;2023-07-29T09:42:49;2.10;;;1.90;;
75071;SDS011;63651;55.728;38.022;2023-07-29T09:47:54;2.67;;;1.67;;
75071;SDS011;63651;55.728;38.022;2023-07-29T09:52:57;3.58;;;1.80;;
75071;SDS011;63651;55.728;38.022;2023-07-29T09:57:59;1.92;;;1.65;;
75071;SDS011;63651;55.728;38.022;2023-07-29T10:03:03;2.15;;;1.70;;
75071;SDS011;63651;55.728;38.022;2023-07-29T10:08:05;2.17;;;1.60;;
75071;SDS011;63651;55.728;38.022;2023-07-29T10:13:06;2.20;;;1.50;;
75071;SDS011;63651;55.728;38.022;2023-07-29T10:18:08;3.00;;;1.70;;
75071;SDS011;63651;55.728;38.022;2023-07-29T10:23:10;2.13;;;1.80;;
75071;SDS011;63651;55.728;38.022;2023-07-29T10:28:14;2.65;;;1.75;;
75071;SDS011;63651;55.728;38.022;2023-07-29T10:33:17;1.60;;;1.50;;
75071;SDS011;63651;55.728;38.022;2023-07-29T10:38:19;1.98;;;1.60;;
75071;SDS011;63651;55.728;38.022;2023-07-29T10:53:36;3.33;;;2.10;;
75071;SDS011;63651;55.728;38.022;2023-07-29T10:58:38;2.72;;;2.33;;
75071;SDS011;63651;55.728;38.022;2023-07-29T11:03:39;2.85;;;2.03;;
75071;SDS011;63651;55.728;38.022;2023-07-29T11:08:44;3.22;;;1.98;;
75071;SDS011;63651;55.728;38.022;2023-07-29T11:13:45;2.65;;;1.85;;
75071;SDS011;63651;55.728;38.022;2023-07-29T11:18:47;2.65;;;1.88;;
75071;SDS011;63651;55.728;38.022;2023-07-29T11:23:50;2.92;;;2.00;;
75071;SDS011;63651;55.728;38.022;2023-07-29T11:28:54;2.35;;;1.92;;
75071;SDS011;63651;55.728;38.022;2023-07-29T11:33:56;2.30;;;1.80;;
75071;SDS011;63651;55.728;38.022;2023-07-29T11:38:57;2.35;;;2.08;;
75071;SDS011;63651;55.728;38.022;2023-07-29T11:43:59;2.47;;;1.95;;
75071;SDS011;63651;55.728;38.022;2023-07-29T11:49:00;2.28;;;1.90;;
75071;SDS011;63651;55.728;38.022;2023-07-29T11:54:02;3.13;;;2.10;;
75071;SDS011;63651;55.728;38.022;2023-07-29T11:59:03;2.88;;;2.08;;
75071;SDS011;63651;55.728;38.022;2023-07-29T12:04:05;2.83;;;2.40;;
75071;SDS011;63651;55.728;38.022;2023-07-29T12:09:07;3.13;;;2.38;;
75071;SDS011;63651;55.728;38.022;2023-07-29T12:14:09;2.53;;;2.30;;
75071;SDS011;63651;55.728;38.022;2023-07-29T12:19:14;2.75;;;2.22;;
75071;SDS011;63651;55.728;38.022;2023-07-29T12:24:16;3.75;;;2.35;;
75071;SDS011;63651;55.728;38.022;2023-07-29T12:29:18;2.83;;;2.10;;
75071;SDS011;63651;55.728;38.022;2023-07-29T12:34:24;3.42;;;2.28;;
75071;SDS011;63651;55.728;38.022;2023-07-29T12:39:28;2.72;;;2.40;;
75071;SDS011;63651;55.728;38.022;2023-07-29T12:44:32;2.55;;;2.13;;
75071;SDS011;63651;55.728;38.022;2023-07-29T12:49:34;2.90;;;2.58;;
75071;SDS011;63651;55.728;38.022;2023-07-29T12:54:36;4.82;;;2.60;;
75071;SDS011;63651;55.728;38.022;2023-07-29T12:59:37;3.55;;;2.58;;
75071;SDS011;63651;55.728;38.022;2023-07-29T13:04:38;3.08;;;2.35;;
75071;SDS011;63651;55.728;38.022;2023-07-29T13:09:39;3.00;;;2.40;;
75071;SDS011;63651;55.728;38.022;2023-07-29T13:14:40;3.47;;;2.50;;
75071;SDS011;63651;55.728;38.022;2023-07-29T13:19:41;3.53;;;2.50;;
75071;SDS011;63651;55.728;38.022;2023-07-29T13:24:42;3.00;;;2.75;;
75071;SDS011;63651;55.728;38.022;2023-07-29T13:29:43;2.80;;;2.50;;
75071;SDS011;63651;55.728;38.022;2023-07-29T13:34:44;3.75;;;2.70;;
75071;SDS011;63651;55.728;38.022;2023-07-29T13:39:45;2.80;;;2.10;;
75071;SDS011;63651;55.728;38.022;2023-07-29T13:44:46;2.60;;;2.40;;
75071;SDS011;63651;55.728;38.022;2023-07-29T13:49:48;2.97;;;1.92;;
75071;SDS011;63651;55.728;38.022;2023-07-29T13:54:49;3.20;;;2.30;;
75071;SDS011;63651;55.728;38.022;2023-07-29T13:59:50;2.67;;;2.10;;
75071;SDS011;63651;55.728;38.022;2023-07-29T14:04:51;2.80;;;1.60;;
75071;SDS011;63651;55.728;38.022;2023-07-29T14:09:52;3.78;;;2.67;;
75071;SDS011;63651;55.728;38.022;2023-07-29T14:14:53;3.10;;;2.00;;
75071;SDS011;63651;55.728;38.022;2023-07-29T14:19:54;3.40;;;2.30;;
75071;SDS011;63651;55.728;38.022;2023-07-29T14:24:55;4.25;;;2.60;;
75071;SDS011;63651;55.728;38.022;2023-07-29T14:29:56;3.03;;;2.00;;
75071;SDS011;63651;55.728;38.022;2023-07-29T14:34:57;3.42;;;2.08;;
75071;SDS011;63651;55.728;38.022;2023-07-29T14:39:58;3.03;;;2.38;;
75071;SDS011;63651;55.728;38.022;2023-07-29T14:44:59;3.47;;;2.05;;
75071;SDS011;63651;55.728;38.022;2023-07-29T14:50:00;5.75;;;2.20;;
75071;SDS011;63651;55.728;38.022;2023-07-29T14:55:02;3.63;;;1.77;;
75071;SDS011;63651;55.728;38.022;2023-07-29T15:00:03;3.55;;;1.88;;
75071;SDS011;63651;55.728;38.022;2023-07-29T15:05:05;3.72;;;1.90;;
75071;SDS011;63651;55.728;38.022;2023-07-29T15:10:06;3.08;;;1.92;;
75071;SDS011;63651;55.728;38.022;2023-07-29T15:15:08;4.00;;;1.80;;
75071;SDS011;63651;55.728;38.022;2023-07-29T15:20:10;2.72;;;2.20;;
75071;SDS011;63651;55.728;38.022;2023-07-29T15:25:11;3.35;;;2.22;;
75071;SDS011;63651;55.728;38.022;2023-07-29T15:30:13;3.15;;;2.30;;
75071;SDS011;63651;55.728;38.022;2023-07-29T15:35:15;4.13;;;2.78;;
75071;SDS011;63651;55.728;38.022;2023-07-29T15:40:16;3.03;;;2.47;;
75071;SDS011;63651;55.728;38.022;2023-07-29T15:45:17;2.22;;;1.67;;
75071;SDS011;63651;55.728;38.022;2023-07-29T15:50:18;2.50;;;2.22;;
75071;SDS011;63651;55.728;38.022;2023-07-29T15:55:20;3.42;;;2.33;;
75071;SDS011;63651;55.728;38.022;2023-07-29T16:00:21;3.05;;;2.10;;
75071;SDS011;63651;55.728;38.022;2023-07-29T16:05:25;3.13;;;2.05;;
75071;SDS011;63651;55.728;38.022;2023-07-29T16:10:26;2.30;;;2.03;;
75071;SDS011;63651;55.728;38.022;2023-07-29T16:15:27;2.85;;;1.98;;
75071;SDS011;63651;55.728;38.022;2023-07-29T16:20:28;2.97;;;2.67;;
75071;SDS011;63651;55.728;38.022;2023-07-29T16:25:29;4.22;;;2.10;;
75071;SDS011;63651;55.728;38.022;2023-07-29T16:30:32;3.55;;;2.00;;
75071;SDS011;63651;55.728;38.022;2023-07-29T16:35:34;3.00;;;2.20;;
75071;SDS011;63651;55.728;38.022;2023-07-29T16:40:35;2.10;;;1.73;;
75071;SDS011;63651;55.728;38.022;2023-07-29T16:45:37;3.05;;;2.00;;
75071;SDS011;63651;55.728;38.022;2023-07-29T16:50:38;2.65;;;1.92;;
75071;SDS011;63651;55.728;38.022;2023-07-29T16:55:39;4.45;;;2.38;;
75071;SDS011;63651;55.728;38.022;2023-07-29T17:00:40;3.10;;;2.00;;
75071;SDS011;63651;55.728;38.022;2023-07-29T17:05:41;3.47;;;2.10;;
75071;SDS011;63651;55.728;38.022;2023-07-29T17:10:42;2.47;;;2.28;;
75071;SDS011;63651;55.728;38.022;2023-07-29T17:15:43;2.45;;;2.13;;
75071;SDS011;63651;55.728;38.022;2023-07-29T17:20:44;2.30;;;1.90;;
75071;SDS011;63651;55.728;38.022;2023-07-29T17:25:45;2.75;;;2.30;;
75071;SDS011;63651;55.728;38.022;2023-07-29T17:30:49;3.13;;;2.33;;
75071;SDS011;63651;55.728;38.022;2023-07-29T17:35:53;3.35;;;2.03;;
75071;SDS011;63651;55.728;38.022;2023-07-29T17:40:55;2.42;;;2.05;;
75071;SDS011;63651;55.728;38.022;2023-07-29T17:45:57;3.30;;;2.40;;
75071;SDS011;63651;55.728;38.022;2023-07-29T17:50:58;3.22;;;2.00;;
75071;SDS011;63651;55.728;38.022;2023-07-29T17:55:59;4.55;;;2.30;;
75071;SDS011;63651;55.728;38.022;2023-07-29T18:01:01;2.97;;;2.10;;
75071;SDS011;63651;55.728;38.022;2023-07-29T18:06:03;3.47;;;2.00;;
75071;SDS011;63651;55.728;38.022;2023-07-29T18:11:12;3.25;;;2.10;;
75071;SDS011;63651;55.728;38.022;2023-07-29T18:16:15;3.45;;;2.10;;
75071;SDS011;63651;55.728;38.022;2023-07-29T18:21:20;2.70;;;2.40;;
75071;SDS011;63651;55.728;38.022;2023-07-29T18:26:21;3.20;;;2.10;;
75071;SDS011;63651;55.728;38.022;2023-07-29T18:31:22;3.22;;;2.08;;
75071;SDS011;63651;55.728;38.022;2023-07-29T18:36:23;2.88;;;2.22;;
75071;SDS011;63651;55.728;38.022;2023-07-29T18:41:24;2.85;;;2.22;;
75071;SDS011;63651;55.728;38.022;2023-07-29T18:46:26;2.63;;;2.00;;
75071;SDS011;63651;55.728;38.022;2023-07-29T18:51:28;3.20;;;2.20;;
75071;SDS011;63651;55.728;38.022;2023-07-29T18:56:29;4.18;;;2.40;;
75071;SDS011;63651;55.728;38.022;2023-07-29T19:01:30;4.13;;;2.40;;
75071;SDS011;63651;55.728;38.022;2023-07-29T19:06:31;3.35;;;2.28;;
75071;SDS011;63651;55.728;38.022;2023-07-29T19:11:32;3.25;;;2.42;;
75071;SDS011;63651;55.728;38.022;2023-07-29T19:16:33;4.63;;;2.40;;
75071;SDS011;63651;55.728;38.022;2023-07-29T19:21:34;2.80;;;2.13;;
75071;SDS011;63651;55.728;38.022;2023-07-29T19:26:36;3.50;;;2.15;;
75071;SDS011;63651;55.728;38.022;2023-07-29T19:31:37;2.92;;;2.20;;
75071;SDS011;63651;55.728;38.022;2023-07-29T19:36:38;3.58;;;2.17;;
75071;SDS011;63651;55.728;38.022;2023-07-29T19:41:39;3.40;;;2.30;;
75071;SDS011;63651;55.728;38.022;2023-07-29T19:46:40;3.05;;;2.38;;
75071;SDS011;63651;55.728;38.022;2023-07-29T19:51:41;3.47;;;2.30;;
75071;SDS011;63651;55.728;38.022;2023-07-29T19:56:42;2.88;;;2.35;;
75071;SDS011;63651;55.728;38.022;2023-07-29T20:01:43;3.00;;;2.53;;
75071;SDS011;63651;55.728;38.022;2023-07-29T20:06:44;4.40;;;2.95;;
75071;SDS011;63651;55.728;38.022;2023-07-29T20:11:45;4.60;;;2.90;;
75071;SDS011;63651;55.728;38.022;2023-07-29T20:16:46;4.45;;;3.08;;
75071;SDS011;63651;55.728;38.022;2023-07-29T20:21:47;3.58;;;2.80;;
75071;SDS011;63651;55.728;38.022;2023-07-29T20:26:49;4.00;;;2.92;;
75071;SDS011;63651;55.728;38.022;2023-07-29T20:31:50;2.92;;;2.63;;
75071;SDS011;63651;55.728;38.022;2023-07-29T20:36:51;4.13;;;2.80;;
75071;SDS011;63651;55.728;38.022;2023-07-29T20:41:52;3.15;;;2.65;;
75071;SDS011;63651;55.728;38.022;2023-07-29T20:46:54;3.75;;;2.60;;
75071;SDS011;63651;55.728;38.022;2023-07-29T20:51:55;3.58;;;2.78;;
75071;SDS011;63651;55.728;38.022;2023-07-29T20:56:56;3.65;;;3.15;;
75071;SDS011;63651;55.728;38.022;2023-07-29T21:01:57;4.05;;;2.65;;
75071;SDS011;63651;55.728;38.022;2023-07-29T21:06:59;3.60;;;3.05;;
75071;SDS011;63651;55.728;38.022;2023-07-29T21:12:00;3.75;;;2.70;;
75071;SDS011;63651;55.728;38.022;2023-07-29T21:17:01;4.32;;;2.80;;
75071;SDS011;63651;55.728;38.022;2023-07-29T21:22:03;3.13;;;2.53;;
75071;SDS011;63651;55.728;38.022;2023-07-29T21:27:04;3.63;;;2.83;;
75071;SDS011;63651;55.728;38.022;2023-07-29T21:32:05;5.15;;;2.90;;
75071;SDS011;63651;55.728;38.022;2023-07-29T21:37:07;4.63;;;2.42;;
75071;SDS011;63651;55.728;38.022;2023-07-29T21:42:08;3.78;;;2.20;;
75071;SDS011;63651;55.728;38.022;2023-07-29T21:47:09;4.35;;;2.58;;
75071;SDS011;63651;55.728;38.022;2023-07-29T21:52:10;3.67;;;2.13;;
75071;SDS011;63651;55.728;38.022;2023-07-29T21:57:11;3.03;;;2.10;;
75071;SDS011;63651;55.728;38.022;2023-07-29T22:02:12;4.43;;;2.50;;
75071;SDS011;63651;55.728;38.022;2023-07-29T22:07:14;3.85;;;2.30;;
75071;SDS011;63651;55.728;38.022;2023-07-29T22:12:16;3.42;;;2.50;;
75071;SDS011;63651;55.728;38.022;2023-07-29T22:17:17;4.25;;;2.20;;
75071;SDS011;63651;55.728;38.022;2023-07-29T22:22:18;2.90;;;2.47;;
75071;SDS011;63651;55.728;38.022;2023-07-29T22:27:19;3.20;;;2.45;;
75071;SDS011;63651;55.728;38.022;2023-07-29T22:32:20;3.50;;;2.88;;
75071;SDS011;63651;55.728;38.022;2023-07-29T22:37:21;2.65;;;2.17;;
75071;SDS011;63651;55.728;38.022;2023-07-29T22:42:22;3.78;;;1.83;;
75071;SDS011;63651;55.728;38.022;2023-07-29T22:47:23;2.63;;;1.92;;
75071;SDS011;63651;55.728;38.022;2023-07-29T22:52:24;2.25;;;2.03;;
75071;SDS011;63651;55.728;38.022;2023-07-29T22:57:25;2.30;;;1.80;;
75071;SDS011;63651;55.728;38.022;2023-07-29T23:02:26;3.00;;;2.15;;
75071;SDS011;63651;55.728;38.022;2023-07-29T23:07:27;2.53;;;2.15;;
75071;SDS011;63651;55.728;38.022;2023-07-29T23:12:28;3.38;;;2.20;;
75071;SDS011;63651;55.728;38.022;2023-07-29T23:17:29;4.47;;;2.13;;
75071;SDS011;63651;55.728;38.022;2023-07-29T23:22:30;2.83;;;2.30;;
75071;SDS011;63651;55.728;38.022;2023-07-29T23:27:31;2.60;;;2.00;;
75071;SDS011;63651;55.728;38.022;2023-07-29T23:32:33;2.33;;;1.95;;
75071;SDS011;63651;55.728;38.022;2023-07-29T23:37:34;4.57;;;2.30;;
75071;SDS011;63651;55.728;38.022;2023-07-29T23:42:35;2.85;;;1.88;;
75071;SDS011;63651;55.728;38.022;2023-07-29T23:47:37;4.80;;;1.85;;
75071;SDS011;63651;55.728;38.022;2023-07-29T23:52:38;2.75;;;1.73;;
75071;SDS011;63651;55.728;38.022;2023-07-29T23:57:39;3.17;;;2.25;;
